createdAt,value
2018-12-23T00:01:26.303Z,4.67
2018-12-23T00:03:54.839Z,5.13
2018-12-23T00:06:23.402Z,4.50
2018-12-23T00:08:51.971Z,4.40
2018-12-23T00:11:20.585Z,4.20
2018-12-23T00:13:49.190Z,4.23
2018-12-23T00:16:17.790Z,3.67
2018-12-23T00:18:46.328Z,4.57
2018-12-23T00:21:14.980Z,3.77
2018-12-23T00:23:43.525Z,3.60
2018-12-23T00:26:12.077Z,4.17
2018-12-23T00:28:40.596Z,4.03
2018-12-23T00:31:09.212Z,3.67
2018-12-23T00:33:37.900Z,4.37
2018-12-23T00:36:06.449Z,4.07
2018-12-23T00:38:35.011Z,3.50
2018-12-23T00:41:03.700Z,3.87
2018-12-23T00:43:32.479Z,4.13
2018-12-23T00:46:01.097Z,3.23
2018-12-23T00:48:29.660Z,5.07
2018-12-23T00:50:58.332Z,4.17
2018-12-23T00:53:26.870Z,3.80
2018-12-23T00:55:55.601Z,4.13
2018-12-23T00:58:24.162Z,4.37
2018-12-23T01:00:52.699Z,4.13
2018-12-23T01:03:21.297Z,3.77
2018-12-23T01:05:49.805Z,4.43
2018-12-23T01:08:18.357Z,4.10
2018-12-23T01:10:46.896Z,4.07
2018-12-23T01:13:16.472Z,4.13
2018-12-23T01:15:45.184Z,3.43
2018-12-23T01:18:13.766Z,3.37
2018-12-23T01:20:42.377Z,3.60
2018-12-23T01:23:10.900Z,3.40
2018-12-23T01:25:39.442Z,3.60
2018-12-23T01:28:07.976Z,3.60
2018-12-23T01:30:36.544Z,3.43
2018-12-23T01:33:05.068Z,3.17
2018-12-23T01:35:37.115Z,3.17
2018-12-23T01:38:04.196Z,3.03
2018-12-23T01:40:32.751Z,3.13
2018-12-23T01:43:01.267Z,2.97
2018-12-23T01:45:29.820Z,2.60
2018-12-23T01:47:58.344Z,2.90
2018-12-23T01:50:26.887Z,2.60
2018-12-23T01:52:55.474Z,2.97
2018-12-23T01:55:24.021Z,2.73
2018-12-23T01:57:52.548Z,2.40
2018-12-23T02:00:21.068Z,2.60
2018-12-23T02:02:49.649Z,2.27
2018-12-23T02:05:18.156Z,2.57
2018-12-23T02:07:46.657Z,2.87
2018-12-23T02:10:15.178Z,2.50
2018-12-23T02:12:43.740Z,2.47
2018-12-23T02:15:12.385Z,2.53
2018-12-23T02:17:40.936Z,2.30
2018-12-23T02:20:09.448Z,2.73
2018-12-23T02:22:37.961Z,2.73
2018-12-23T02:25:06.541Z,2.33
2018-12-23T02:27:35.044Z,2.30
2018-12-23T02:30:03.571Z,2.50
2018-12-23T02:32:32.484Z,2.20
2018-12-23T02:35:01.109Z,2.77
2018-12-23T02:37:30.403Z,3.37
2018-12-23T02:39:58.965Z,2.80
2018-12-23T02:42:27.501Z,3.17
2018-12-23T02:44:56.035Z,2.57
2018-12-23T02:47:24.581Z,2.93
2018-12-23T02:49:53.095Z,1.97
2018-12-23T02:52:21.613Z,2.30
2018-12-23T02:54:50.136Z,2.50
2018-12-23T02:57:18.663Z,2.30
2018-12-23T02:59:47.261Z,1.90
2018-12-23T03:02:15.821Z,4.23
2018-12-23T03:04:44.387Z,3.50
2018-12-23T03:07:12.932Z,3.33
2018-12-23T03:09:50.201Z,3.10
2018-12-23T03:12:18.720Z,3.57
2018-12-23T03:14:47.247Z,2.77
2018-12-23T03:17:15.783Z,2.97
2018-12-23T03:19:44.295Z,2.63
2018-12-23T03:22:12.793Z,2.53
2018-12-23T03:24:41.365Z,2.23
2018-12-23T03:27:09.898Z,2.60
2018-12-23T03:29:38.412Z,2.60
2018-12-23T03:32:06.942Z,2.57
2018-12-23T03:34:35.448Z,2.43
2018-12-23T03:37:03.980Z,2.43
2018-12-23T03:39:32.545Z,2.70
2018-12-23T03:42:01.082Z,2.67
2018-12-23T03:44:29.612Z,2.80
2018-12-23T03:46:58.249Z,2.83
2018-12-23T03:49:26.896Z,2.80
2018-12-23T03:51:55.463Z,2.77
2018-12-23T03:54:24.086Z,2.73
2018-12-23T03:56:52.623Z,2.67
2018-12-23T03:59:21.194Z,2.70
2018-12-23T04:01:49.717Z,2.77
2018-12-23T04:04:18.253Z,3.00
2018-12-23T04:06:46.773Z,2.27
2018-12-23T04:09:15.301Z,2.43
2018-12-23T04:11:43.820Z,2.40
2018-12-23T04:14:12.344Z,2.20
2018-12-23T04:16:40.916Z,2.13
2018-12-23T04:19:09.466Z,2.53
2018-12-23T04:21:38.006Z,2.67
2018-12-23T04:24:06.537Z,2.17
2018-12-23T04:26:35.085Z,2.33
2018-12-23T04:29:03.579Z,2.30
2018-12-23T04:31:32.125Z,2.57
2018-12-23T04:34:00.613Z,2.30
2018-12-23T04:36:34.029Z,2.40
2018-12-23T04:38:59.681Z,2.27
2018-12-23T04:41:28.172Z,2.63
2018-12-23T04:43:56.717Z,2.37
2018-12-23T04:46:25.265Z,2.40
2018-12-23T04:48:53.876Z,2.07
2018-12-23T04:51:22.404Z,2.23
2018-12-23T04:53:50.923Z,2.20
2018-12-23T04:56:19.457Z,2.23
2018-12-23T04:58:47.957Z,2.40
2018-12-23T05:01:16.473Z,2.23
2018-12-23T05:03:45.004Z,1.90
2018-12-23T05:06:13.564Z,2.10
2018-12-23T05:08:42.038Z,2.00
2018-12-23T05:11:10.566Z,2.30
2018-12-23T05:13:39.093Z,2.27
2018-12-23T05:16:07.605Z,1.90
2018-12-23T05:18:36.131Z,2.23
2018-12-23T05:21:04.654Z,2.30
2018-12-23T05:23:33.144Z,2.20
2018-12-23T05:26:01.688Z,2.17
2018-12-23T05:28:30.199Z,2.03
2018-12-23T05:30:58.688Z,2.30
2018-12-23T05:33:27.237Z,2.03
2018-12-23T05:35:55.907Z,2.33
2018-12-23T05:38:24.421Z,2.20
2018-12-23T05:40:52.927Z,2.30
2018-12-23T05:43:21.427Z,1.90
2018-12-23T05:45:49.965Z,1.80
2018-12-23T05:48:18.464Z,1.67
2018-12-23T05:50:46.965Z,1.63
2018-12-23T05:53:15.480Z,1.70
2018-12-23T05:55:42.957Z,1.90
2018-12-23T05:58:11.487Z,1.83
2018-12-23T06:00:39.989Z,1.70
2018-12-23T06:03:08.535Z,2.30
2018-12-23T06:05:37.093Z,1.80
2018-12-23T06:08:05.632Z,2.00
2018-12-23T06:10:34.214Z,1.83
2018-12-23T06:13:02.744Z,2.27
2018-12-23T06:15:31.266Z,2.10
2018-12-23T06:17:59.785Z,2.07
2018-12-23T06:20:28.273Z,2.03
2018-12-23T06:22:56.831Z,2.30
2018-12-23T06:25:25.360Z,1.70
2018-12-23T06:27:53.896Z,2.10
2018-12-23T06:30:22.503Z,1.67
2018-12-23T06:32:51.125Z,1.97
2018-12-23T06:35:20.029Z,1.63
2018-12-23T06:37:48.601Z,1.70
2018-12-23T06:40:17.520Z,1.73
2018-12-23T06:42:46.125Z,1.93
2018-12-23T06:45:14.629Z,1.53
2018-12-23T06:47:43.155Z,1.70
2018-12-23T06:50:12.406Z,1.80
2018-12-23T06:52:40.944Z,2.07
2018-12-23T06:55:09.500Z,2.07
2018-12-23T06:57:38.032Z,1.50
2018-12-23T07:00:07.405Z,1.83
2018-12-23T07:02:35.969Z,2.43
2018-12-23T07:05:04.957Z,2.10
2018-12-23T07:07:33.473Z,2.03
2018-12-23T07:10:01.996Z,2.20
2018-12-23T07:12:30.579Z,2.50
2018-12-23T07:14:59.671Z,2.07
2018-12-23T07:17:28.482Z,2.40
2018-12-23T07:19:57.044Z,2.33
2018-12-23T07:22:25.546Z,2.30
2018-12-23T07:24:54.108Z,2.40
2018-12-23T07:27:22.664Z,2.83
2018-12-23T07:29:51.169Z,2.90
2018-12-23T07:32:19.710Z,3.03
2018-12-23T07:34:48.267Z,3.40
2018-12-23T07:37:16.774Z,3.27
2018-12-23T07:39:45.340Z,2.97
2018-12-23T07:42:13.892Z,2.90
2018-12-23T07:44:42.473Z,2.97
2018-12-23T07:47:11.002Z,2.73
2018-12-23T07:49:39.599Z,2.83
2018-12-23T07:52:08.133Z,3.37
2018-12-23T07:54:36.650Z,2.93
2018-12-23T07:57:05.204Z,3.20
2018-12-23T07:59:33.778Z,6.20
2018-12-23T08:02:02.417Z,3.83
2018-12-23T08:04:31.027Z,3.63
2018-12-23T08:06:59.794Z,4.47
2018-12-23T08:09:28.391Z,6.90
2018-12-23T08:11:56.944Z,5.23
2018-12-23T08:14:25.671Z,4.57
2018-12-23T08:16:54.276Z,4.60
2018-12-23T08:19:23.376Z,4.67
2018-12-23T08:21:51.909Z,4.17
2018-12-23T08:24:20.484Z,4.77
2018-12-23T08:26:49.125Z,4.93
2018-12-23T08:29:17.672Z,4.63
2018-12-23T08:31:46.227Z,5.30
2018-12-23T08:34:14.778Z,4.90
2018-12-23T08:36:43.308Z,4.60
2018-12-23T08:39:11.829Z,5.53
2018-12-23T08:41:40.392Z,5.07
2018-12-23T08:44:08.929Z,5.27
2018-12-23T08:46:39.346Z,5.20
2018-12-23T08:49:08.058Z,5.17
2018-12-23T08:51:36.597Z,5.17
2018-12-23T08:54:05.133Z,5.30
2018-12-23T08:56:33.709Z,5.37
2018-12-23T08:59:02.240Z,5.17
2018-12-23T09:01:30.846Z,5.87
2018-12-23T09:03:59.382Z,6.40
2018-12-23T09:06:27.960Z,5.93
2018-12-23T09:08:56.529Z,5.40
2018-12-23T09:11:25.107Z,5.23
2018-12-23T09:13:53.697Z,5.30
2018-12-23T09:16:22.273Z,5.57
2018-12-23T09:18:50.785Z,7.50
2018-12-23T09:21:19.311Z,5.50
2018-12-23T09:23:47.898Z,5.67
2018-12-23T09:26:16.448Z,5.83
2018-12-23T09:28:44.983Z,4.77
2018-12-23T09:31:13.537Z,5.83
2018-12-23T09:33:42.086Z,5.80
2018-12-23T09:36:12.058Z,5.53
2018-12-23T09:38:40.629Z,6.43
2018-12-23T09:41:09.166Z,5.50
2018-12-23T09:43:37.694Z,5.53
2018-12-23T09:46:06.244Z,5.90
2018-12-23T09:48:34.788Z,5.50
2018-12-23T09:51:03.296Z,6.33
2018-12-23T09:53:31.840Z,5.83
2018-12-23T09:56:00.368Z,6.30
2018-12-23T09:58:28.943Z,6.03
2018-12-23T10:00:57.481Z,5.90
2018-12-23T10:03:26.025Z,5.00
2018-12-23T10:05:54.561Z,5.50
2018-12-23T10:08:23.101Z,5.40
2018-12-23T10:10:51.600Z,5.07
2018-12-23T10:13:20.152Z,5.47
2018-12-23T10:15:48.668Z,5.37
2018-12-23T10:18:17.243Z,4.87
2018-12-23T10:20:45.776Z,5.30
2018-12-23T10:23:16.231Z,4.80
2018-12-23T10:25:45.052Z,5.57
2018-12-23T10:28:13.873Z,5.20
2018-12-23T10:30:42.571Z,4.70
2018-12-23T10:33:11.120Z,4.73
2018-12-23T10:35:39.672Z,4.30
2018-12-23T10:38:08.199Z,4.70
2018-12-23T10:40:36.721Z,4.43
2018-12-23T10:43:05.234Z,4.47
2018-12-23T10:45:33.785Z,4.67
2018-12-23T10:48:02.361Z,7.43
2018-12-23T10:50:30.978Z,14.57
2018-12-23T10:52:59.530Z,10.80
2018-12-23T10:55:28.087Z,6.33
2018-12-23T10:57:56.602Z,6.20
2018-12-23T11:00:25.105Z,6.00
2018-12-23T11:02:53.728Z,5.27
2018-12-23T11:05:22.283Z,5.63
2018-12-23T11:07:50.830Z,6.17
2018-12-23T11:10:19.333Z,5.80
2018-12-23T11:12:47.949Z,5.20
2018-12-23T11:15:16.573Z,5.73
2018-12-23T11:17:45.238Z,5.47
2018-12-23T11:20:13.776Z,5.20
2018-12-23T11:22:42.286Z,5.30
2018-12-23T11:25:10.845Z,5.57
2018-12-23T11:27:39.866Z,4.77
2018-12-23T11:30:08.968Z,6.00
2018-12-23T11:32:37.485Z,6.47
2018-12-23T11:35:06.018Z,6.40
2018-12-23T11:37:34.596Z,5.53
2018-12-23T11:40:03.125Z,5.93
2018-12-23T11:42:31.680Z,5.60
2018-12-23T11:45:00.260Z,5.50
2018-12-23T11:47:28.845Z,5.13
2018-12-23T11:49:57.405Z,4.33
2018-12-23T11:52:25.923Z,3.47
2018-12-23T11:54:54.492Z,3.40
2018-12-23T11:57:23.710Z,3.73
2018-12-23T11:59:52.238Z,3.20
2018-12-23T12:02:20.765Z,3.57
2018-12-23T12:04:49.274Z,4.27
2018-12-23T12:07:17.804Z,3.87
2018-12-23T12:09:46.324Z,3.60
2018-12-23T12:12:14.832Z,3.63
2018-12-23T12:14:43.374Z,4.03
2018-12-23T12:17:11.862Z,3.80
2018-12-23T12:19:40.393Z,3.77
2018-12-23T12:22:10.007Z,4.17
2018-12-23T12:24:38.520Z,4.03
2018-12-23T12:27:07.053Z,4.50
2018-12-23T12:29:35.792Z,4.37
2018-12-23T12:32:04.327Z,4.50
2018-12-23T12:34:32.839Z,4.67
2018-12-23T12:37:01.632Z,4.83
2018-12-23T12:39:30.178Z,5.60
2018-12-23T12:41:58.721Z,5.00
2018-12-23T12:44:27.414Z,6.80
2018-12-23T12:46:55.970Z,7.73
2018-12-23T12:49:25.341Z,7.57
2018-12-23T12:51:53.897Z,8.17
2018-12-23T12:54:22.458Z,7.37
2018-12-23T12:56:51.051Z,7.50
2018-12-23T12:59:19.663Z,8.53
2018-12-23T13:01:48.201Z,7.63
2018-12-23T13:04:16.957Z,7.53
2018-12-23T13:06:45.715Z,9.00
2018-12-23T13:09:14.309Z,8.00
2018-12-23T13:11:43.086Z,8.27
2018-12-23T13:14:11.738Z,7.60
2018-12-23T13:16:40.337Z,7.00
2018-12-23T13:19:09.009Z,7.03
2018-12-23T13:21:37.861Z,7.00
2018-12-23T13:24:06.484Z,6.20
2018-12-23T13:26:35.220Z,5.53
2018-12-23T13:29:03.854Z,5.53
2018-12-23T13:31:32.439Z,5.00
2018-12-23T13:34:01.008Z,5.03
2018-12-23T13:36:29.551Z,4.13
2018-12-23T13:38:58.082Z,3.90
2018-12-23T13:41:39.458Z,3.30
2018-12-23T13:44:29.020Z,3.20
2018-12-23T13:49:16.262Z,3.47
2018-12-23T13:53:59.325Z,3.53
2018-12-23T13:57:13.892Z,3.60
2018-12-23T14:00:02.450Z,3.23
2018-12-23T14:02:55.744Z,3.07
2018-12-23T14:07:37.123Z,3.80
2018-12-23T14:10:13.933Z,2.93
2018-12-23T14:12:42.488Z,3.60
2018-12-23T14:15:11.021Z,2.80
2018-12-23T14:17:39.556Z,3.30
2018-12-23T14:20:08.065Z,3.03
2018-12-23T14:22:36.760Z,3.00
2018-12-23T14:25:05.328Z,3.43
2018-12-23T14:27:33.860Z,3.47
2018-12-23T14:30:02.437Z,3.73
2018-12-23T14:32:31.653Z,3.30
2018-12-23T14:35:00.235Z,3.00
2018-12-23T14:37:28.893Z,3.23
2018-12-23T14:39:57.908Z,3.20
2018-12-23T14:42:26.414Z,3.20
2018-12-23T14:44:54.951Z,2.70
2018-12-23T14:47:23.483Z,3.20
2018-12-23T14:49:52.055Z,3.03
2018-12-23T14:52:21.056Z,3.17
2018-12-23T14:54:49.630Z,3.17
2018-12-23T14:57:18.157Z,3.17
2018-12-23T14:59:46.763Z,3.10
2018-12-23T15:02:15.281Z,3.53
2018-12-23T15:04:43.833Z,2.80
2018-12-23T15:07:12.377Z,3.00
2018-12-23T15:09:40.928Z,2.77
2018-12-23T15:12:09.463Z,2.87
2018-12-23T15:14:37.993Z,3.00
2018-12-23T15:17:06.517Z,2.97
2018-12-23T15:19:35.123Z,3.07
2018-12-23T15:22:03.660Z,3.33
2018-12-23T15:24:32.240Z,2.90
2018-12-23T15:27:00.897Z,3.27
2018-12-23T15:29:29.447Z,2.80
2018-12-23T15:31:57.968Z,3.10
2018-12-23T15:34:26.517Z,3.13
2018-12-23T15:36:55.045Z,2.87
2018-12-23T15:39:24.534Z,3.03
2018-12-23T15:41:53.049Z,2.87
2018-12-23T15:44:21.574Z,2.60
2018-12-23T15:46:50.245Z,3.07
2018-12-23T15:49:18.796Z,2.93
2018-12-23T15:51:47.326Z,3.20
2018-12-23T15:54:15.872Z,3.00
2018-12-23T15:56:44.409Z,3.20
2018-12-23T15:59:12.930Z,2.50
2018-12-23T16:01:41.472Z,2.33
2018-12-23T16:04:09.985Z,3.03
2018-12-23T16:06:38.688Z,3.33
2018-12-23T16:09:08.517Z,4.37
2018-12-23T16:11:37.371Z,5.13
2018-12-23T16:14:06.059Z,4.20
2018-12-23T16:16:34.608Z,4.83
2018-12-23T16:19:04.156Z,4.60
2018-12-23T16:21:32.756Z,6.37
2018-12-23T16:24:01.331Z,6.70
2018-12-23T16:26:29.841Z,5.70
2018-12-23T16:28:58.409Z,6.90
2018-12-23T16:31:26.969Z,7.17
2018-12-23T16:33:55.565Z,6.83
2018-12-23T16:36:24.181Z,6.40
2018-12-23T16:38:52.717Z,5.67
2018-12-23T16:41:21.269Z,6.10
2018-12-23T16:43:49.840Z,6.57
2018-12-23T16:46:18.471Z,7.00
2018-12-23T16:48:47.650Z,7.50
2018-12-23T16:51:16.189Z,8.27
2018-12-23T16:53:44.738Z,7.87
2018-12-23T16:56:13.256Z,8.57
2018-12-23T16:58:42.074Z,9.33
2018-12-23T17:01:10.650Z,9.90
2018-12-23T17:03:39.206Z,9.60
2018-12-23T17:06:07.746Z,9.93
2018-12-23T17:08:36.309Z,11.40
2018-12-23T17:11:04.896Z,11.97
2018-12-23T17:14:15.059Z,12.23
2018-12-23T17:16:44.274Z,8.67
2018-12-23T17:19:13.513Z,13.50
2018-12-23T17:21:42.682Z,15.27
2018-12-23T17:24:11.848Z,13.97
2018-12-23T17:26:41.075Z,8.80
2018-12-23T17:29:10.318Z,7.13
2018-12-23T17:31:39.617Z,6.93
2018-12-23T17:34:08.786Z,6.87
2018-12-23T17:36:38.185Z,8.73
2018-12-23T17:39:08.171Z,10.30
2018-12-23T17:41:37.387Z,8.27
2018-12-23T17:44:06.669Z,8.83
2018-12-23T17:46:35.940Z,8.70
2018-12-23T17:49:05.167Z,9.30
2018-12-23T17:51:34.417Z,8.67
2018-12-23T17:54:04.102Z,8.87
2018-12-23T17:56:33.378Z,9.13
2018-12-23T17:59:02.646Z,9.07
2018-12-23T18:01:31.839Z,10.10
2018-12-23T18:04:02.383Z,9.13
2018-12-23T18:06:31.786Z,9.20
2018-12-23T18:09:01.291Z,9.23
2018-12-23T18:11:30.569Z,10.73
2018-12-23T18:13:59.838Z,9.13
2018-12-23T18:16:29.037Z,9.63
2018-12-23T18:18:58.448Z,15.37
2018-12-23T18:21:28.034Z,22.23
2018-12-23T18:23:57.409Z,22.40
2018-12-23T18:26:26.868Z,18.10
2018-12-23T18:29:07.166Z,27.67
2018-12-23T18:31:36.429Z,19.57
2018-12-23T18:34:05.753Z,20.07
2018-12-23T18:36:37.238Z,19.60
2018-12-23T18:39:08.722Z,19.37
2018-12-23T18:41:38.006Z,19.97
2018-12-23T18:44:18.893Z,19.37
2018-12-23T18:46:49.510Z,19.63
2018-12-23T18:49:20.539Z,17.37
2018-12-23T18:51:49.984Z,20.80
2018-12-23T18:54:19.170Z,19.77
2018-12-23T18:56:50.086Z,20.17
2018-12-23T18:59:22.029Z,18.80
2018-12-23T19:01:59.466Z,19.03
2018-12-23T19:04:28.834Z,22.67
2018-12-23T19:06:58.427Z,17.57
2018-12-23T19:09:50.501Z,23.30
2018-12-23T19:12:46.686Z,22.93
2018-12-23T19:16:03.770Z,20.47
2018-12-23T19:19:07.593Z,20.70
2018-12-23T19:22:26.042Z,19.63
2018-12-23T19:25:38.432Z,18.40
2018-12-23T19:28:40.862Z,19.37
2018-12-23T19:31:49.050Z,19.57
2018-12-23T19:34:45.847Z,20.00
2018-12-23T19:37:49.109Z,19.27
2018-12-23T19:41:01.907Z,18.93
2018-12-23T19:43:59.466Z,16.57
2018-12-23T19:47:12.483Z,19.80
2018-12-23T19:50:31.173Z,22.67
2018-12-23T19:53:41.294Z,20.00
2018-12-23T19:56:43.661Z,22.27
2018-12-23T19:59:58.986Z,23.93
2018-12-23T20:03:21.269Z,26.57
2018-12-23T20:06:36.120Z,26.50
2018-12-23T20:09:50.135Z,47.70
2018-12-23T20:12:55.174Z,61.07
2018-12-23T20:16:08.427Z,51.27
2018-12-23T20:19:07.636Z,54.90
2018-12-23T20:22:14.113Z,55.83
2018-12-23T20:25:36.885Z,56.00
2018-12-23T20:28:49.413Z,48.10
2018-12-23T20:31:49.962Z,45.33
2018-12-23T20:35:06.246Z,43.93
2018-12-23T20:37:52.982Z,44.00
2018-12-23T20:41:07.477Z,43.63
2018-12-23T20:44:16.348Z,49.03
2018-12-23T20:47:20.807Z,44.53
2018-12-23T20:50:37.499Z,41.50
2018-12-23T20:53:38.387Z,39.40
2018-12-23T20:56:42.323Z,37.97
2018-12-23T20:59:59.018Z,34.53
2018-12-23T21:03:21.546Z,33.47
2018-12-23T21:06:27.843Z,32.83
2018-12-23T21:09:38.134Z,29.47
2018-12-23T21:13:01.214Z,28.57
2018-12-23T21:16:06.367Z,31.73
2018-12-23T21:19:14.849Z,27.40
2018-12-23T21:22:10.916Z,28.23
2018-12-23T21:25:12.419Z,26.03
2018-12-23T21:28:04.513Z,26.13
2018-12-23T21:31:11.753Z,26.27
2018-12-23T21:34:21.694Z,24.93
2018-12-23T21:37:29.302Z,23.70
2018-12-23T21:41:01.157Z,24.80
2018-12-23T21:44:06.450Z,24.50
2018-12-23T21:47:02.566Z,24.10
2018-12-23T21:50:27.251Z,24.70
2018-12-23T21:53:21.674Z,23.77
2018-12-23T21:56:40.389Z,22.93
2018-12-23T21:59:55.464Z,25.33
2018-12-23T22:03:08.293Z,25.67
2018-12-23T22:06:05.779Z,24.07
2018-12-23T22:09:13.988Z,21.73
2018-12-23T22:12:42.527Z,22.67
2018-12-23T22:15:11.846Z,22.40
2018-12-23T22:17:41.037Z,21.87
2018-12-23T22:20:10.198Z,21.70
2018-12-23T22:22:39.411Z,22.60
2018-12-23T22:25:08.716Z,21.13
2018-12-23T22:27:38.002Z,19.00
2018-12-23T22:30:07.329Z,20.00
2018-12-23T22:32:36.883Z,20.97
2018-12-23T22:35:06.026Z,18.60
2018-12-23T22:37:35.291Z,19.00
2018-12-23T22:40:04.758Z,18.40
2018-12-23T22:42:34.082Z,19.50
2018-12-23T22:45:03.344Z,19.33
2018-12-23T22:47:32.538Z,18.33
2018-12-23T22:50:01.794Z,18.77
2018-12-23T22:52:31.014Z,19.97
2018-12-23T22:55:00.206Z,18.90
2018-12-23T22:57:29.971Z,18.27
2018-12-23T22:59:59.185Z,18.33
2018-12-23T23:02:28.405Z,17.47
2018-12-23T23:04:57.728Z,17.03
2018-12-23T23:07:26.947Z,18.30
2018-12-23T23:09:56.169Z,17.80
2018-12-23T23:12:25.453Z,17.87
2018-12-23T23:14:54.720Z,16.33
2018-12-23T23:17:23.947Z,16.77
2018-12-23T23:19:53.498Z,16.97
2018-12-23T23:22:22.719Z,17.10
2018-12-23T23:24:51.979Z,17.03
2018-12-23T23:27:21.204Z,16.70
2018-12-23T23:29:50.433Z,16.60
2018-12-23T23:32:21.917Z,16.40
2018-12-23T23:34:51.141Z,15.10
2018-12-23T23:37:20.366Z,16.20
2018-12-23T23:39:49.630Z,15.13
2018-12-23T23:42:18.857Z,13.97
2018-12-23T23:44:48.082Z,14.10
2018-12-23T23:47:17.926Z,14.43
2018-12-23T23:49:47.165Z,14.20
2018-12-23T23:52:16.417Z,13.15
2018-12-23T23:54:45.687Z,13.97
2018-12-23T23:57:14.862Z,15.50
2018-12-23T23:59:44.504Z,13.30
